sensor_id;sensor_type;location;lat;lon;timestamp;pressure;altitude;pressure_sealevel;temperature;humidity
70815;BME280;58428;49.478;10.986;2023-11-19T00:00:50;98471.31;;;6.97;100.00
70815;BME280;58428;49.478;10.986;2023-11-19T00:03:16;98464.59;;;6.95;100.00
70815;BME280;58428;49.478;10.986;2023-11-19T00:05:41;98455.47;;;6.82;100.00
70815;BME280;58428;49.478;10.986;2023-11-19T00:08:07;98449.38;;;6.90;100.00
70815;BME280;58428;49.478;10.986;2023-11-19T00:10:35;98445.50;;;6.83;100.00
70815;BME280;58428;49.478;10.986;2023-11-19T00:13:06;98441.63;;;6.89;100.00
70815;BME280;58428;49.478;10.986;2023-11-19T00:15:32;98442.22;;;6.86;100.00
70815;BME280;58428;49.478;10.986;2023-11-19T00:17:57;98448.13;;;6.74;100.00
70815;BME280;58428;49.478;10.986;2023-11-19T00:20:22;98443.44;;;6.80;100.00
70815;BME280;58428;49.478;10.986;2023-11-19T00:22:48;98447.81;;;6.89;100.00
70815;BME280;58428;49.478;10.986;2023-11-19T00:25:16;98445.41;;;6.88;100.00
70815;BME280;58428;49.478;10.986;2023-11-19T00:27:42;98439.34;;;6.82;100.00
70815;BME280;58428;49.478;10.986;2023-11-19T00:30:10;98437.25;;;6.79;100.00
70815;BME280;58428;49.478;10.986;2023-11-19T00:32:36;98434.47;;;6.84;100.00
70815;BME280;58428;49.478;10.986;2023-11-19T00:35:07;98426.97;;;6.95;100.00
70815;BME280;58428;49.478;10.986;2023-11-19T00:37:33;98420.75;;;7.07;100.00
70815;BME280;58428;49.478;10.986;2023-11-19T00:40:00;98421.44;;;7.13;100.00
70815;BME280;58428;49.478;10.986;2023-11-19T00:42:26;98417.34;;;7.15;100.00
70815;BME280;58428;49.478;10.986;2023-11-19T00:44:53;98407.28;;;7.21;100.00
70815;BME280;58428;49.478;10.986;2023-11-19T00:47:18;98397.59;;;7.20;100.00
70815;BME280;58428;49.478;10.986;2023-11-19T00:49:46;98399.63;;;7.14;100.00
70815;BME280;58428;49.478;10.986;2023-11-19T00:52:16;98396.75;;;7.11;100.00
70815;BME280;58428;49.478;10.986;2023-11-19T00:54:42;98392.88;;;7.03;100.00
70815;BME280;58428;49.478;10.986;2023-11-19T00:57:07;98378.94;;;7.01;100.00
70815;BME280;58428;49.478;10.986;2023-11-19T00:59:33;98381.81;;;7.05;100.00
70815;BME280;58428;49.478;10.986;2023-11-19T01:01:58;98380.34;;;6.99;100.00
70815;BME280;58428;49.478;10.986;2023-11-19T01:04:33;98372.69;;;6.93;100.00
70815;BME280;58428;49.478;10.986;2023-11-19T01:06:58;98379.66;;;6.94;100.00
70815;BME280;58428;49.478;10.986;2023-11-19T01:09:24;98387.94;;;6.97;100.00
70815;BME280;58428;49.478;10.986;2023-11-19T01:11:51;98394.38;;;6.96;100.00
70815;BME280;58428;49.478;10.986;2023-11-19T01:14:18;98398.66;;;7.10;100.00
70815;BME280;58428;49.478;10.986;2023-11-19T01:16:45;98401.25;;;7.24;100.00
70815;BME280;58428;49.478;10.986;2023-11-19T01:19:11;98400.88;;;7.30;100.00
70815;BME280;58428;49.478;10.986;2023-11-19T01:21:37;98397.97;;;7.27;100.00
70815;BME280;58428;49.478;10.986;2023-11-19T01:24:02;98396.31;;;7.39;100.00
70815;BME280;58428;49.478;10.986;2023-11-19T01:26:31;98382.72;;;7.35;100.00
70815;BME280;58428;49.478;10.986;2023-11-19T01:28:56;98383.41;;;7.28;100.00
70815;BME280;58428;49.478;10.986;2023-11-19T01:31:22;98384.47;;;7.18;100.00
70815;BME280;58428;49.478;10.986;2023-11-19T01:33:47;98386.44;;;7.26;100.00
70815;BME280;58428;49.478;10.986;2023-11-19T01:36:13;98380.97;;;7.18;100.00
70815;BME280;58428;49.478;10.986;2023-11-19T01:38:39;98380.84;;;7.23;100.00
70815;BME280;58428;49.478;10.986;2023-11-19T01:41:04;98365.44;;;7.15;100.00
70815;BME280;58428;49.478;10.986;2023-11-19T01:43:37;98368.72;;;7.12;100.00
70815;BME280;58428;49.478;10.986;2023-11-19T01:46:05;98365.00;;;7.21;100.00
70815;BME280;58428;49.478;10.986;2023-11-19T01:48:34;98350.81;;;7.29;100.00
70815;BME280;58428;49.478;10.986;2023-11-19T01:51:05;98333.16;;;7.36;100.00
70815;BME280;58428;49.478;10.986;2023-11-19T01:53:34;98317.53;;;7.47;100.00
70815;BME280;58428;49.478;10.986;2023-11-19T01:56:02;98311.72;;;7.53;100.00
70815;BME280;58428;49.478;10.986;2023-11-19T01:58:32;98301.94;;;7.57;100.00
70815;BME280;58428;49.478;10.986;2023-11-19T02:01:13;98308.41;;;7.56;100.00
70815;BME280;58428;49.478;10.986;2023-11-19T02:03:42;98316.97;;;7.58;100.00
70815;BME280;58428;49.478;10.986;2023-11-19T02:06:15;98305.22;;;7.54;100.00
70815;BME280;58428;49.478;10.986;2023-11-19T02:08:41;98310.63;;;7.54;100.00
70815;BME280;58428;49.478;10.986;2023-11-19T02:11:11;98306.84;;;7.55;100.00
70815;BME280;58428;49.478;10.986;2023-11-19T02:13:37;98309.31;;;7.43;100.00
70815;BME280;58428;49.478;10.986;2023-11-19T02:16:03;98312.59;;;7.40;100.00
70815;BME280;58428;49.478;10.986;2023-11-19T02:18:29;98317.31;;;7.35;100.00
70815;BME280;58428;49.478;10.986;2023-11-19T02:20:55;98313.72;;;7.39;100.00
70815;BME280;58428;49.478;10.986;2023-11-19T02:23:21;98308.56;;;7.51;100.00
70815;BME280;58428;49.478;10.986;2023-11-19T02:28:35;98302.84;;;7.53;100.00
70815;BME280;58428;49.478;10.986;2023-11-19T02:31:04;98312.00;;;7.43;100.00
70815;BME280;58428;49.478;10.986;2023-11-19T02:33:35;98295.72;;;7.57;100.00
70815;BME280;58428;49.478;10.986;2023-11-19T02:36:00;98299.28;;;7.66;100.00
70815;BME280;58428;49.478;10.986;2023-11-19T02:38:28;98293.38;;;7.55;100.00
70815;BME280;58428;49.478;10.986;2023-11-19T02:40:54;98307.69;;;7.42;100.00
70815;BME280;58428;49.478;10.986;2023-11-19T02:43:19;98304.72;;;7.44;100.00
70815;BME280;58428;49.478;10.986;2023-11-19T02:45:45;98307.91;;;7.54;100.00
70815;BME280;58428;49.478;10.986;2023-11-19T02:48:11;98297.16;;;7.54;100.00
70815;BME280;58428;49.478;10.986;2023-11-19T02:50:39;98305.53;;;7.53;100.00
70815;BME280;58428;49.478;10.986;2023-11-19T02:53:04;98305.19;;;7.46;100.00
70815;BME280;58428;49.478;10.986;2023-11-19T02:55:31;98288.53;;;7.35;100.00
70815;BME280;58428;49.478;10.986;2023-11-19T02:58:02;98284.25;;;7.43;100.00
70815;BME280;58428;49.478;10.986;2023-11-19T03:00:34;98275.13;;;7.52;100.00
70815;BME280;58428;49.478;10.986;2023-11-19T03:03:03;98278.75;;;7.48;100.00
70815;BME280;58428;49.478;10.986;2023-11-19T03:05:43;98280.97;;;7.46;100.00
70815;BME280;58428;49.478;10.986;2023-11-19T03:08:09;98278.75;;;7.48;100.00
70815;BME280;58428;49.478;10.986;2023-11-19T03:10:35;98280.09;;;7.59;100.00
70815;BME280;58428;49.478;10.986;2023-11-19T03:13:01;98279.34;;;7.67;100.00
70815;BME280;58428;49.478;10.986;2023-11-19T03:15:28;98277.44;;;7.67;100.00
70815;BME280;58428;49.478;10.986;2023-11-19T03:17:53;98269.56;;;7.79;100.00
70815;BME280;58428;49.478;10.986;2023-11-19T03:20:19;98256.44;;;7.86;100.00
70815;BME280;58428;49.478;10.986;2023-11-19T03:22:46;98246.78;;;7.93;100.00
70815;BME280;58428;49.478;10.986;2023-11-19T03:25:11;98258.66;;;7.84;100.00
70815;BME280;58428;49.478;10.986;2023-11-19T03:27:39;98249.09;;;7.78;100.00
70815;BME280;58428;49.478;10.986;2023-11-19T03:30:06;98262.34;;;7.58;100.00
70815;BME280;58428;49.478;10.986;2023-11-19T03:32:32;98254.38;;;7.53;100.00
70815;BME280;58428;49.478;10.986;2023-11-19T03:34:58;98225.91;;;7.60;100.00
70815;BME280;58428;49.478;10.986;2023-11-19T03:37:24;98205.53;;;7.68;100.00
70815;BME280;58428;49.478;10.986;2023-11-19T03:40:19;98190.81;;;7.73;100.00
70815;BME280;58428;49.478;10.986;2023-11-19T03:42:47;98172.25;;;7.72;100.00
70815;BME280;58428;49.478;10.986;2023-11-19T03:45:13;98153.59;;;7.75;100.00
70815;BME280;58428;49.478;10.986;2023-11-19T03:47:39;98120.00;;;7.73;100.00
70815;BME280;58428;49.478;10.986;2023-11-19T03:50:05;98117.44;;;7.60;100.00
70815;BME280;58428;49.478;10.986;2023-11-19T03:52:32;98124.09;;;7.54;100.00
70815;BME280;58428;49.478;10.986;2023-11-19T03:54:57;98128.97;;;7.43;100.00
70815;BME280;58428;49.478;10.986;2023-11-19T03:57:23;98137.50;;;7.37;100.00
70815;BME280;58428;49.478;10.986;2023-11-19T03:59:49;98148.09;;;7.33;100.00
70815;BME280;58428;49.478;10.986;2023-11-19T04:02:15;98142.44;;;7.43;100.00
70815;BME280;58428;49.478;10.986;2023-11-19T04:04:40;98158.88;;;7.42;100.00
70815;BME280;58428;49.478;10.986;2023-11-19T04:07:07;98157.78;;;7.43;100.00
70815;BME280;58428;49.478;10.986;2023-11-19T04:09:33;98157.19;;;7.54;100.00
70815;BME280;58428;49.478;10.986;2023-11-19T04:11:59;98157.34;;;7.58;100.00
70815;BME280;58428;49.478;10.986;2023-11-19T04:14:24;98181.88;;;7.48;100.00
70815;BME280;58428;49.478;10.986;2023-11-19T04:16:50;98177.44;;;7.52;100.00
70815;BME280;58428;49.478;10.986;2023-11-19T04:19:16;98182.84;;;7.60;100.00
70815;BME280;58428;49.478;10.986;2023-11-19T04:21:41;98181.44;;;7.63;100.00
70815;BME280;58428;49.478;10.986;2023-11-19T04:24:09;98183.19;;;7.67;100.00
70815;BME280;58428;49.478;10.986;2023-11-19T04:26:41;98180.31;;;7.64;100.00
70815;BME280;58428;49.478;10.986;2023-11-19T04:29:12;98185.59;;;7.69;100.00
70815;BME280;58428;49.478;10.986;2023-11-19T04:31:38;98173.09;;;7.72;100.00
70815;BME280;58428;49.478;10.986;2023-11-19T04:34:05;98180.69;;;7.70;100.00
70815;BME280;58428;49.478;10.986;2023-11-19T04:36:35;98182.91;;;7.77;100.00
70815;BME280;58428;49.478;10.986;2023-11-19T04:39:02;98184.34;;;7.74;100.00
70815;BME280;58428;49.478;10.986;2023-11-19T04:41:27;98188.47;;;7.80;100.00
70815;BME280;58428;49.478;10.986;2023-11-19T04:43:54;98190.81;;;7.82;100.00
70815;BME280;58428;49.478;10.986;2023-11-19T04:46:19;98182.47;;;7.92;100.00
70815;BME280;58428;49.478;10.986;2023-11-19T04:48:45;98179.78;;;7.92;100.00
70815;BME280;58428;49.478;10.986;2023-11-19T04:51:11;98180.41;;;7.89;100.00
70815;BME280;58428;49.478;10.986;2023-11-19T04:53:37;98177.22;;;7.87;100.00
70815;BME280;58428;49.478;10.986;2023-11-19T04:56:10;98177.69;;;7.89;100.00
70815;BME280;58428;49.478;10.986;2023-11-19T04:58:36;98185.47;;;7.90;100.00
70815;BME280;58428;49.478;10.986;2023-11-19T05:01:03;98173.13;;;7.98;100.00
70815;BME280;58428;49.478;10.986;2023-11-19T05:03:31;98177.22;;;7.95;100.00
70815;BME280;58428;49.478;10.986;2023-11-19T05:05:57;98182.31;;;7.97;100.00
70815;BME280;58428;49.478;10.986;2023-11-19T05:08:22;98181.34;;;7.93;100.00
70815;BME280;58428;49.478;10.986;2023-11-19T05:10:48;98171.88;;;8.04;100.00
70815;BME280;58428;49.478;10.986;2023-11-19T05:13:14;98176.03;;;8.09;100.00
70815;BME280;58428;49.478;10.986;2023-11-19T05:15:41;98173.34;;;8.18;100.00
70815;BME280;58428;49.478;10.986;2023-11-19T05:18:06;98159.56;;;8.19;100.00
70815;BME280;58428;49.478;10.986;2023-11-19T05:20:33;98162.72;;;8.30;100.00
70815;BME280;58428;49.478;10.986;2023-11-19T05:23:03;98157.03;;;8.31;100.00
70815;BME280;58428;49.478;10.986;2023-11-19T05:25:29;98163.97;;;8.32;100.00
70815;BME280;58428;49.478;10.986;2023-11-19T05:27:56;98158.59;;;8.41;100.00
70815;BME280;58428;49.478;10.986;2023-11-19T05:30:23;98158.75;;;8.27;100.00
70815;BME280;58428;49.478;10.986;2023-11-19T05:32:48;98150.03;;;8.39;100.00
70815;BME280;58428;49.478;10.986;2023-11-19T05:35:14;98145.41;;;8.47;100.00
70815;BME280;58428;49.478;10.986;2023-11-19T05:37:39;98147.50;;;8.34;100.00
70815;BME280;58428;49.478;10.986;2023-11-19T05:40:08;98141.47;;;8.28;100.00
70815;BME280;58428;49.478;10.986;2023-11-19T05:42:40;98138.47;;;8.13;100.00
70815;BME280;58428;49.478;10.986;2023-11-19T05:45:07;98145.13;;;8.15;100.00
70815;BME280;58428;49.478;10.986;2023-11-19T05:47:33;98138.31;;;8.09;100.00
70815;BME280;58428;49.478;10.986;2023-11-19T05:50:00;98132.13;;;8.17;100.00
70815;BME280;58428;49.478;10.986;2023-11-19T05:52:25;98125.94;;;8.25;100.00
70815;BME280;58428;49.478;10.986;2023-11-19T05:54:52;98129.91;;;8.28;100.00
70815;BME280;58428;49.478;10.986;2023-11-19T05:57:19;98130.22;;;8.26;100.00
70815;BME280;58428;49.478;10.986;2023-11-19T05:59:50;98126.88;;;8.38;100.00
70815;BME280;58428;49.478;10.986;2023-11-19T06:02:16;98128.47;;;8.39;100.00
70815;BME280;58428;49.478;10.986;2023-11-19T06:04:41;98133.69;;;8.43;100.00
70815;BME280;58428;49.478;10.986;2023-11-19T06:07:09;98133.22;;;8.42;100.00
70815;BME280;58428;49.478;10.986;2023-11-19T06:09:36;98140.03;;;8.47;100.00
70815;BME280;58428;49.478;10.986;2023-11-19T06:12:01;98144.16;;;8.62;100.00
70815;BME280;58428;49.478;10.986;2023-11-19T06:14:28;98137.50;;;8.59;100.00
70815;BME280;58428;49.478;10.986;2023-11-19T06:16:54;98130.66;;;8.70;100.00
70815;BME280;58428;49.478;10.986;2023-11-19T06:19:19;98143.50;;;8.65;100.00
70815;BME280;58428;49.478;10.986;2023-11-19T06:21:45;98136.50;;;8.72;100.00
70815;BME280;58428;49.478;10.986;2023-11-19T06:24:11;98132.22;;;8.80;100.00
70815;BME280;58428;49.478;10.986;2023-11-19T06:26:37;98140.28;;;8.88;100.00
70815;BME280;58428;49.478;10.986;2023-11-19T06:29:04;98142.66;;;8.89;100.00
70815;BME280;58428;49.478;10.986;2023-11-19T06:31:29;98142.16;;;8.96;100.00
70815;BME280;58428;49.478;10.986;2023-11-19T06:33:56;98139.00;;;9.02;100.00
70815;BME280;58428;49.478;10.986;2023-11-19T06:36:23;98138.66;;;9.04;100.00
70815;BME280;58428;49.478;10.986;2023-11-19T06:38:48;98136.41;;;9.06;100.00
70815;BME280;58428;49.478;10.986;2023-11-19T06:41:14;98138.38;;;8.97;100.00
70815;BME280;58428;49.478;10.986;2023-11-19T06:43:39;98127.38;;;9.10;100.00
70815;BME280;58428;49.478;10.986;2023-11-19T06:46:05;98132.31;;;9.08;100.00
70815;BME280;58428;49.478;10.986;2023-11-19T06:48:40;98128.78;;;9.16;100.00
70815;BME280;58428;49.478;10.986;2023-11-19T06:51:06;98134.81;;;9.21;100.00
70815;BME280;58428;49.478;10.986;2023-11-19T06:53:37;98136.19;;;9.27;100.00
70815;BME280;58428;49.478;10.986;2023-11-19T06:56:46;98128.09;;;9.27;100.00
70815;BME280;58428;49.478;10.986;2023-11-19T06:59:13;98134.09;;;9.33;100.00
70815;BME280;58428;49.478;10.986;2023-11-19T07:01:39;98133.78;;;9.34;100.00
70815;BME280;58428;49.478;10.986;2023-11-19T07:04:07;98139.94;;;9.43;100.00
70815;BME280;58428;49.478;10.986;2023-11-19T07:06:56;98131.31;;;9.50;100.00
70815;BME280;58428;49.478;10.986;2023-11-19T07:09:42;98132.56;;;9.52;100.00
70815;BME280;58428;49.478;10.986;2023-11-19T07:12:08;98136.66;;;9.58;100.00
70815;BME280;58428;49.478;10.986;2023-11-19T07:14:57;98136.19;;;9.64;100.00
70815;BME280;58428;49.478;10.986;2023-11-19T07:21:30;98134.34;;;9.77;100.00
70815;BME280;58428;49.478;10.986;2023-11-19T07:24:10;98140.69;;;9.81;100.00
70815;BME280;58428;49.478;10.986;2023-11-19T07:26:43;98144.78;;;9.87;100.00
70815;BME280;58428;49.478;10.986;2023-11-19T07:29:09;98147.78;;;9.93;100.00
70815;BME280;58428;49.478;10.986;2023-11-19T07:31:40;98159.66;;;10.01;100.00
70815;BME280;58428;49.478;10.986;2023-11-19T07:34:19;98154.84;;;10.06;100.00
70815;BME280;58428;49.478;10.986;2023-11-19T07:36:57;98157.19;;;10.16;100.00
70815;BME280;58428;49.478;10.986;2023-11-19T07:40:00;98155.88;;;10.22;100.00
70815;BME280;58428;49.478;10.986;2023-11-19T07:46:35;98155.72;;;10.39;100.00
70815;BME280;58428;49.478;10.986;2023-11-19T07:53:23;98156.91;;;10.50;100.00
70815;BME280;58428;49.478;10.986;2023-11-19T07:59:22;98157.88;;;10.65;100.00
70815;BME280;58428;49.478;10.986;2023-11-19T08:01:51;98153.69;;;10.68;100.00
70815;BME280;58428;49.478;10.986;2023-11-19T08:04:34;98154.53;;;10.68;100.00
70815;BME280;58428;49.478;10.986;2023-11-19T08:07:18;98159.94;;;10.68;100.00
70815;BME280;58428;49.478;10.986;2023-11-19T08:16:02;98152.78;;;10.84;100.00
70815;BME280;58428;49.478;10.986;2023-11-19T08:18:50;98162.00;;;10.83;100.00
70815;BME280;58428;49.478;10.986;2023-11-19T08:28:59;98144.78;;;10.88;100.00
70815;BME280;58428;49.478;10.986;2023-11-19T08:44:59;98151.06;;;11.24;100.00
70815;BME280;58428;49.478;10.986;2023-11-19T08:47:44;98152.22;;;11.35;100.00
70815;BME280;58428;49.478;10.986;2023-11-19T08:50:44;98140.81;;;11.41;100.00
70815;BME280;58428;49.478;10.986;2023-11-19T09:06:48;98117.53;;;12.11;100.00
70815;BME280;58428;49.478;10.986;2023-11-19T11:50:32;98050.56;;;14.44;100.00
70815;BME280;58428;49.478;10.986;2023-11-19T12:25:10;98037.03;;;13.95;100.00
70815;BME280;58428;49.478;10.986;2023-11-19T12:42:13;98013.13;;;15.23;100.00
70815;BME280;58428;49.478;10.986;2023-11-19T12:44:55;98012.59;;;15.14;100.00
70815;BME280;58428;49.478;10.986;2023-11-19T13:16:40;98028.97;;;14.55;100.00
70815;BME280;58428;49.478;10.986;2023-11-19T13:19:36;98004.28;;;14.44;100.00
70815;BME280;58428;49.478;10.986;2023-11-19T13:52:49;97964.91;;;15.05;100.00
70815;BME280;58428;49.478;10.986;2023-11-19T13:55:52;97964.75;;;14.95;100.00
70815;BME280;58428;49.478;10.986;2023-11-19T13:59:15;97962.81;;;14.95;100.00
70815;BME280;58428;49.478;10.986;2023-11-19T14:13:23;97974.94;;;14.35;100.00
70815;BME280;58428;49.478;10.986;2023-11-19T14:19:40;97978.31;;;14.09;100.00
70815;BME280;58428;49.478;10.986;2023-11-19T14:22:05;97985.31;;;14.10;100.00
70815;BME280;58428;49.478;10.986;2023-11-19T14:24:38;97987.25;;;14.10;100.00
70815;BME280;58428;49.478;10.986;2023-11-19T14:27:30;97994.47;;;14.02;100.00
70815;BME280;58428;49.478;10.986;2023-11-19T14:30:00;97994.69;;;13.94;100.00
70815;BME280;58428;49.478;10.986;2023-11-19T14:43:19;97962.59;;;13.65;100.00
70815;BME280;58428;49.478;10.986;2023-11-19T14:45:58;97976.25;;;13.69;100.00
70815;BME280;58428;49.478;10.986;2023-11-19T15:07:07;97981.00;;;13.91;100.00
70815;BME280;58428;49.478;10.986;2023-11-19T15:09:44;97985.78;;;13.78;100.00
70815;BME280;58428;49.478;10.986;2023-11-19T15:12:16;97978.19;;;13.68;100.00
70815;BME280;58428;49.478;10.986;2023-11-19T15:14:54;97990.25;;;13.52;100.00
70815;BME280;58428;49.478;10.986;2023-11-19T15:17:34;97982.72;;;13.46;100.00
70815;BME280;58428;49.478;10.986;2023-11-19T15:20:04;97985.34;;;13.42;100.00
70815;BME280;58428;49.478;10.986;2023-11-19T15:22:30;97986.69;;;13.33;100.00
70815;BME280;58428;49.478;10.986;2023-11-19T15:24:58;98005.91;;;13.24;100.00
70815;BME280;58428;49.478;10.986;2023-11-19T15:27:24;98007.84;;;13.24;100.00
70815;BME280;58428;49.478;10.986;2023-11-19T15:30:18;98005.91;;;13.24;100.00
70815;BME280;58428;49.478;10.986;2023-11-19T15:35:44;98000.28;;;13.18;100.00
70815;BME280;58428;49.478;10.986;2023-11-19T15:38:12;98006.25;;;13.08;100.00
70815;BME280;58428;49.478;10.986;2023-11-19T15:40:37;98008.38;;;12.99;100.00
70815;BME280;58428;49.478;10.986;2023-11-19T15:43:06;98011.69;;;12.92;100.00
70815;BME280;58428;49.478;10.986;2023-11-19T15:45:35;98004.94;;;12.87;100.00
70815;BME280;58428;49.478;10.986;2023-11-19T15:48:05;97997.84;;;12.82;100.00
70815;BME280;58428;49.478;10.986;2023-11-19T15:50:31;98006.22;;;12.77;100.00
70815;BME280;58428;49.478;10.986;2023-11-19T15:52:57;98011.19;;;12.75;100.00
70815;BME280;58428;49.478;10.986;2023-11-19T15:55:25;98017.78;;;12.74;100.00
70815;BME280;58428;49.478;10.986;2023-11-19T15:57:53;98018.47;;;12.71;100.00
70815;BME280;58428;49.478;10.986;2023-11-19T16:00:20;98018.31;;;12.64;100.00
70815;BME280;58428;49.478;10.986;2023-11-19T16:02:49;98022.03;;;12.60;100.00
70815;BME280;58428;49.478;10.986;2023-11-19T16:05:15;98022.75;;;12.57;100.00
70815;BME280;58428;49.478;10.986;2023-11-19T16:07:41;98031.13;;;12.52;100.00
70815;BME280;58428;49.478;10.986;2023-11-19T16:10:06;98031.50;;;12.50;100.00
70815;BME280;58428;49.478;10.986;2023-11-19T16:12:36;98032.63;;;12.49;100.00
70815;BME280;58428;49.478;10.986;2023-11-19T16:15:06;98023.88;;;12.56;100.00
70815;BME280;58428;49.478;10.986;2023-11-19T16:17:36;98033.81;;;12.64;100.00
70815;BME280;58428;49.478;10.986;2023-11-19T16:20:04;98034.69;;;12.68;100.00
70815;BME280;58428;49.478;10.986;2023-11-19T16:22:37;98048.75;;;12.73;100.00
70815;BME280;58428;49.478;10.986;2023-11-19T16:25:06;98051.59;;;12.77;100.00
70815;BME280;58428;49.478;10.986;2023-11-19T16:27:32;98050.81;;;12.76;100.00
70815;BME280;58428;49.478;10.986;2023-11-19T16:30:00;98054.78;;;12.79;100.00
70815;BME280;58428;49.478;10.986;2023-11-19T16:32:26;98048.09;;;12.76;100.00
70815;BME280;58428;49.478;10.986;2023-11-19T16:34:52;98052.72;;;12.76;100.00
70815;BME280;58428;49.478;10.986;2023-11-19T16:37:21;98041.06;;;12.75;100.00
70815;BME280;58428;49.478;10.986;2023-11-19T16:39:46;98043.72;;;12.72;100.00
70815;BME280;58428;49.478;10.986;2023-11-19T16:42:12;98038.63;;;12.70;100.00
70815;BME280;58428;49.478;10.986;2023-11-19T16:44:40;98040.56;;;12.70;100.00
70815;BME280;58428;49.478;10.986;2023-11-19T16:47:06;98038.19;;;12.68;100.00
70815;BME280;58428;49.478;10.986;2023-11-19T16:49:35;98037.03;;;12.69;100.00
70815;BME280;58428;49.478;10.986;2023-11-19T16:52:01;98045.16;;;12.69;100.00
70815;BME280;58428;49.478;10.986;2023-11-19T16:54:31;98042.91;;;12.71;100.00
70815;BME280;58428;49.478;10.986;2023-11-19T16:56:57;98049.47;;;12.70;100.00
70815;BME280;58428;49.478;10.986;2023-11-19T16:59:26;98048.94;;;12.65;100.00
70815;BME280;58428;49.478;10.986;2023-11-19T17:02:01;98045.34;;;12.61;100.00
70815;BME280;58428;49.478;10.986;2023-11-19T17:04:28;98045.94;;;12.54;100.00
70815;BME280;58428;49.478;10.986;2023-11-19T17:06:55;98051.50;;;12.46;100.00
70815;BME280;58428;49.478;10.986;2023-11-19T17:09:23;98062.38;;;12.46;100.00
70815;BME280;58428;49.478;10.986;2023-11-19T17:11:49;98057.19;;;12.41;100.00
70815;BME280;58428;49.478;10.986;2023-11-19T17:14:16;98053.16;;;12.35;100.00
70815;BME280;58428;49.478;10.986;2023-11-19T17:16:42;98060.75;;;12.30;100.00
70815;BME280;58428;49.478;10.986;2023-11-19T17:19:07;98063.00;;;12.28;100.00
70815;BME280;58428;49.478;10.986;2023-11-19T17:21:34;98062.91;;;12.24;100.00
70815;BME280;58428;49.478;10.986;2023-11-19T17:23:59;98065.50;;;12.21;100.00
70815;BME280;58428;49.478;10.986;2023-11-19T17:26:51;98069.03;;;12.21;100.00
70815;BME280;58428;49.478;10.986;2023-11-19T17:29:23;98083.28;;;12.18;100.00
70815;BME280;58428;49.478;10.986;2023-11-19T17:31:48;98077.06;;;12.18;100.00
70815;BME280;58428;49.478;10.986;2023-11-19T17:34:15;98085.88;;;12.15;100.00
70815;BME280;58428;49.478;10.986;2023-11-19T17:36:42;98078.09;;;12.13;100.00
70815;BME280;58428;49.478;10.986;2023-11-19T17:39:10;98078.00;;;12.10;100.00
70815;BME280;58428;49.478;10.986;2023-11-19T17:41:36;98084.09;;;12.07;100.00
70815;BME280;58428;49.478;10.986;2023-11-19T17:44:05;98079.72;;;12.03;100.00
70815;BME280;58428;49.478;10.986;2023-11-19T17:46:30;98083.09;;;12.00;100.00
70815;BME280;58428;49.478;10.986;2023-11-19T17:48:56;98084.91;;;11.96;100.00
70815;BME280;58428;49.478;10.986;2023-11-19T17:51:42;98098.00;;;11.94;100.00
70815;BME280;58428;49.478;10.986;2023-11-19T17:54:46;98104.91;;;11.91;100.00
70815;BME280;58428;49.478;10.986;2023-11-19T17:57:11;98095.88;;;11.87;100.00
70815;BME280;58428;49.478;10.986;2023-11-19T17:59:38;98094.22;;;11.83;100.00
70815;BME280;58428;49.478;10.986;2023-11-19T18:02:03;98087.09;;;11.78;100.00
70815;BME280;58428;49.478;10.986;2023-11-19T18:04:32;98096.34;;;11.77;100.00
70815;BME280;58428;49.478;10.986;2023-11-19T18:06:58;98088.00;;;11.71;100.00
70815;BME280;58428;49.478;10.986;2023-11-19T18:09:27;98094.91;;;11.68;100.00
70815;BME280;58428;49.478;10.986;2023-11-19T18:14:40;98087.69;;;11.60;100.00
70815;BME280;58428;49.478;10.986;2023-11-19T18:17:06;98084.06;;;11.56;100.00
70815;BME280;58428;49.478;10.986;2023-11-19T18:19:33;98086.31;;;11.54;100.00
70815;BME280;58428;49.478;10.986;2023-11-19T18:21:59;98087.44;;;11.53;100.00
70815;BME280;58428;49.478;10.986;2023-11-19T18:24:28;98089.38;;;11.53;100.00
70815;BME280;58428;49.478;10.986;2023-11-19T18:26:56;98092.53;;;11.55;100.00
70815;BME280;58428;49.478;10.986;2023-11-19T18:29:23;98096.03;;;11.55;100.00
70815;BME280;58428;49.478;10.986;2023-11-19T18:31:50;98094.47;;;11.54;100.00
70815;BME280;58428;49.478;10.986;2023-11-19T18:34:15;98100.31;;;11.56;100.00
70815;BME280;58428;49.478;10.986;2023-11-19T18:36:51;98106.19;;;11.58;100.00
70815;BME280;58428;49.478;10.986;2023-11-19T18:39:17;98114.31;;;11.58;100.00
70815;BME280;58428;49.478;10.986;2023-11-19T18:41:43;98116.47;;;11.65;100.00
70815;BME280;58428;49.478;10.986;2023-11-19T18:44:11;98117.72;;;11.67;100.00
70815;BME280;58428;49.478;10.986;2023-11-19T18:46:39;98109.34;;;11.72;100.00
70815;BME280;58428;49.478;10.986;2023-11-19T18:49:05;98125.03;;;11.78;100.00
70815;BME280;58428;49.478;10.986;2023-11-19T18:51:35;98120.94;;;11.84;100.00
70815;BME280;58428;49.478;10.986;2023-11-19T18:54:06;98129.31;;;11.91;100.00
70815;BME280;58428;49.478;10.986;2023-11-19T18:56:43;98134.41;;;11.93;100.00
70815;BME280;58428;49.478;10.986;2023-11-19T18:59:08;98135.41;;;12.00;100.00
70815;BME280;58428;49.478;10.986;2023-11-19T19:01:40;98136.75;;;12.06;100.00
70815;BME280;58428;49.478;10.986;2023-11-19T19:04:10;98149.16;;;12.07;100.00
70815;BME280;58428;49.478;10.986;2023-11-19T19:06:36;98142.72;;;12.12;100.00
70815;BME280;58428;49.478;10.986;2023-11-19T19:09:06;98152.66;;;12.08;100.00
70815;BME280;58428;49.478;10.986;2023-11-19T19:11:33;98154.94;;;12.06;100.00
70815;BME280;58428;49.478;10.986;2023-11-19T19:14:01;98147.38;;;11.99;100.00